• Join FlightAware (Why Join?)
  • Login
  • US Flag 
05:11PM EDT


 

Airport Tracker/Info


-or-


 

Live Flight TrackerFlight Track Log ✈ N89KB ✈ 24-Jun-2013 ✈ KCHA - KGMU

Flight Track Log - Related Links

Times and Time Zones

All times are in EDT time to prevent confusion due to time zone crossing. See the N89KB flight status page for this flight to view local times or setup timezone preferences in your user account.

Time Position Orientation Groundspeed Altitude Reporting Facility
EDT Latitude Longitude Course Direction KTS MPH feet Rate Location/Type
05:25PM 34.9689 -85.1033 90° East 126 145 5,200  Level Atlanta Center
05:26PM 34.9733 -85.0628 82° East 116 133 6,200 900 Climbing Atlanta Center
05:27PM 34.9778 -85.0300 81° East 132 152 7,000 780 Climbing Atlanta Center
05:28PM 34.9500 -84.9652 90° East  Level FlightAware Approximate
05:28PM 34.9864 -84.9819 78° East 137 158 7,800  Level Atlanta Center
05:29PM 34.9500 -84.9155 90° East  Level FlightAware Approximate
05:29PM 34.9911 -84.9364 83° East 132 152 8,600  Level Atlanta Center
05:30PM 34.9500 -84.8658 90° East  Level FlightAware Approximate
05:30PM 34.9933 -84.8881 87° East 132 152 9,500  Level Atlanta Center
05:31PM 34.9500 -84.8161 90° East  Level FlightAware Approximate
05:31PM 34.9958 -84.8450 86° East 132 152 10,400  Level Atlanta Center
05:32PM 35.0003 -84.7994 83° East 132 152 11,100 300 Climbing Atlanta Center
05:33PM 35.0089 -84.7436 79° East 145 167 11,100  Level Atlanta Center
05:34PM 35.0219 -84.6806 76° East 167 192 11,100  Level Atlanta Center
05:35PM 35.0367 -84.6094 76° East 189 217 11,100  Level Atlanta Center
05:36PM 35.0497 -84.5436 76° East 200 230 11,100  Level Atlanta Center
05:37PM 35.0583 -84.4753 81° East 200 230 11,100  Level Atlanta Center
05:38PM 35.0689 -84.4067 79° East 200 230 11,100  Level Atlanta Center
05:39PM 35.0794 -84.3408 79° East 200 230 11,100  Level Atlanta Center
05:40PM 35.0881 -84.2747 81° East 200 230 11,100  Level Atlanta Center
05:41PM 35.1047 -84.2089 73° East 200 230 11,100  Level Atlanta Center
05:42PM 35.0964 -84.1403 98° East 200 230 11,100  Level Atlanta Center
05:43PM 35.0922 -84.0717 94° East 195 224 11,100  Level Atlanta Center
05:44PM 35.0881 -84.0058 94° East 195 224 11,100  Level Atlanta Center
05:45PM 35.0839 -83.9372 94° East 200 230 11,100  Level Atlanta Center
05:46PM 35.0861 -83.8711 88° East 200 230 11,100 -60 Level Atlanta Center
05:47PM 35.0900 -83.8028 86° East 200 230 11,000 -300 Descending Atlanta Center
05:48PM 35.0942 -83.7367 86° East 200 230 10,500 -540 Descending Atlanta Center
05:49PM 35.0958 -83.6681 88° East 200 230 10,000 -420 Descending Atlanta Center
05:50PM 35.0978 -83.6022 88° East 200 230 9,700 -360 Descending Atlanta Center
05:51PM 35.0975 -83.5311 90° East 200 230 9,300 -360 Descending Atlanta Center
05:52PM 35.0931 -83.4728 95° East 195 224 9,000 -180 Descending Atlanta Center
05:53PM 35.0969 -83.4067 86° East 195 224 9,000  Level Atlanta Center
05:54PM 35.1008 -83.3406 86° East 195 224 9,000  Level Atlanta Center
05:55PM 35.1047 -83.2772 86° East 189 217 9,000  Level Atlanta Center
05:56PM 35.1083 -83.2136 86° East 189 217 9,000  Level Atlanta Center
05:57PM 35.1119 -83.1400 87° East 189 217 9,000  Level Atlanta Center
05:58PM 35.1136 -83.0764 88° East 194 223 9,000  Level Atlanta Center
05:59PM 35.1172 -83.0156 86° East 194 223 9,000  Level Atlanta Center
06:00PM 35.1106 -82.9494 97° East 189 217 9,000  Level Atlanta Center
06:01PM 35.1036 -82.8811 97° East 194 223 9,000 -180 Level Atlanta Center
06:02PM 35.0947 -82.8203 100° East 194 223 8,700 -540 Descending Atlanta Center
06:03PM 35.0878 -82.7544 97° East 199 229 8,000 -660 Descending Atlanta Center
06:04PM 35.0725 -82.6989 109° East 189 217 7,400 -600 Descending Atlanta Center
06:05PM 35.0469 -82.6408 118° Southeast 182 209 6,900 -480 Descending Atlanta Center
06:06PM 35.0172 -82.6008 132° Southeast 176 203 6,500 -600 Descending Atlanta Center
06:07PM 34.9853 -82.5556 131° Southeast 171 197 5,800 -840 Descending Atlanta Center
06:08PM 34.9556 -82.5131 130° Southeast 171 197 4,900 -960 Descending Atlanta Center
06:09PM 34.9258 -82.4706 130° Southeast 159 183 3,900 -840 Descending Atlanta Center
06:10PM 34.9086 -82.4253 115° Southeast 154 177 3,300 -360 Descending Atlanta Center
06:11PM 34.8892 -82.3878 122° Southeast 148 170 3,200 -120 Descending Atlanta Center
06:13PM 34.8479 -82.3500 141° Southeast  Level Estimated
06:20PM 34.8479 -82.3500 141° Southeast  Level Estimated
06:21PM 34.8479 -82.3500 141° Southeast  Level Estimated